sensor_id;sensor_type;location;lat;lon;timestamp;P1;durP1;ratioP1;P2;durP2;ratioP2
12210;SDS011;6168;42.658;23.298;2022-10-22T00:01:49;9.68;;;5.65;;
12210;SDS011;6168;42.658;23.298;2022-10-22T00:04:16;6.03;;;5.13;;
12210;SDS011;6168;42.658;23.298;2022-10-22T00:06:44;6.28;;;5.50;;
12210;SDS011;6168;42.658;23.298;2022-10-22T00:09:11;6.75;;;5.30;;
12210;SDS011;6168;42.658;23.298;2022-10-22T00:11:37;7.97;;;5.30;;
12210;SDS011;6168;42.658;23.298;2022-10-22T00:14:04;7.25;;;5.28;;
12210;SDS011;6168;42.658;23.298;2022-10-22T00:16:30;6.35;;;5.15;;
12210;SDS011;6168;42.658;23.298;2022-10-22T00:18:57;8.52;;;5.53;;
12210;SDS011;6168;42.658;23.298;2022-10-22T00:21:24;8.38;;;5.22;;
12210;SDS011;6168;42.658;23.298;2022-10-22T00:23:54;7.80;;;6.43;;
12210;SDS011;6168;42.658;23.298;2022-10-22T00:26:21;9.90;;;6.07;;
12210;SDS011;6168;42.658;23.298;2022-10-22T00:28:47;6.45;;;5.68;;
12210;SDS011;6168;42.658;23.298;2022-10-22T00:31:14;7.25;;;5.63;;
12210;SDS011;6168;42.658;23.298;2022-10-22T00:33:41;6.63;;;5.20;;
12210;SDS011;6168;42.658;23.298;2022-10-22T00:36:07;6.35;;;4.57;;
12210;SDS011;6168;42.658;23.298;2022-10-22T00:38:34;5.00;;;4.50;;
12210;SDS011;6168;42.658;23.298;2022-10-22T00:41:02;7.53;;;5.25;;
12210;SDS011;6168;42.658;23.298;2022-10-22T00:43:28;8.07;;;5.85;;
12210;SDS011;6168;42.658;23.298;2022-10-22T00:45:55;7.50;;;5.78;;
12210;SDS011;6168;42.658;23.298;2022-10-22T00:48:22;5.50;;;4.97;;
12210;SDS011;6168;42.658;23.298;2022-10-22T00:50:51;6.30;;;5.53;;
12210;SDS011;6168;42.658;23.298;2022-10-22T00:53:20;7.07;;;5.85;;
12210;SDS011;6168;42.658;23.298;2022-10-22T00:55:48;8.15;;;5.30;;
12210;SDS011;6168;42.658;23.298;2022-10-22T00:58:17;7.28;;;5.97;;
12210;SDS011;6168;42.658;23.298;2022-10-22T01:00:45;7.80;;;5.95;;
12210;SDS011;6168;42.658;23.298;2022-10-22T01:03:12;5.85;;;5.15;;
12210;SDS011;6168;42.658;23.298;2022-10-22T01:05:40;5.70;;;4.85;;
12210;SDS011;6168;42.658;23.298;2022-10-22T01:08:08;7.60;;;5.50;;
12210;SDS011;6168;42.658;23.298;2022-10-22T01:10:41;6.97;;;5.55;;
12210;SDS011;6168;42.658;23.298;2022-10-22T01:13:15;7.88;;;4.28;;
12210;SDS011;6168;42.658;23.298;2022-10-22T01:15:44;8.65;;;5.95;;
12210;SDS011;6168;42.658;23.298;2022-10-22T01:18:15;5.65;;;4.93;;
12210;SDS011;6168;42.658;23.298;2022-10-22T01:20:45;5.53;;;4.78;;
12210;SDS011;6168;42.658;23.298;2022-10-22T01:23:19;5.57;;;5.07;;
12210;SDS011;6168;42.658;23.298;2022-10-22T01:25:48;7.07;;;5.75;;
12210;SDS011;6168;42.658;23.298;2022-10-22T01:28:20;5.45;;;4.13;;
12210;SDS011;6168;42.658;23.298;2022-10-22T01:30:53;8.23;;;5.47;;
12210;SDS011;6168;42.658;23.298;2022-10-22T01:33:21;7.00;;;4.60;;
12210;SDS011;6168;42.658;23.298;2022-10-22T01:35:48;7.75;;;4.50;;
12210;SDS011;6168;42.658;23.298;2022-10-22T01:38:16;4.97;;;4.47;;
12210;SDS011;6168;42.658;23.298;2022-10-22T01:40:44;5.68;;;4.88;;
12210;SDS011;6168;42.658;23.298;2022-10-22T01:43:11;7.20;;;4.80;;
12210;SDS011;6168;42.658;23.298;2022-10-22T01:45:39;10.95;;;5.00;;
12210;SDS011;6168;42.658;23.298;2022-10-22T01:48:11;4.90;;;4.05;;
12210;SDS011;6168;42.658;23.298;2022-10-22T01:50:44;6.15;;;4.47;;
12210;SDS011;6168;42.658;23.298;2022-10-22T01:53:17;6.75;;;4.90;;
12210;SDS011;6168;42.658;23.298;2022-10-22T01:55:47;6.85;;;4.25;;
12210;SDS011;6168;42.658;23.298;2022-10-22T01:58:20;4.95;;;4.50;;
12210;SDS011;6168;42.658;23.298;2022-10-22T02:00:54;9.63;;;4.80;;
12210;SDS011;6168;42.658;23.298;2022-10-22T02:03:24;6.57;;;4.65;;
12210;SDS011;6168;42.658;23.298;2022-10-22T02:05:52;8.57;;;4.70;;
12210;SDS011;6168;42.658;23.298;2022-10-22T02:08:20;5.82;;;4.70;;
12210;SDS011;6168;42.658;23.298;2022-10-22T02:10:47;6.97;;;4.53;;
12210;SDS011;6168;42.658;23.298;2022-10-22T02:13:15;6.63;;;4.85;;
12210;SDS011;6168;42.658;23.298;2022-10-22T02:15:44;6.95;;;4.97;;
12210;SDS011;6168;42.658;23.298;2022-10-22T02:18:11;4.88;;;4.40;;
12210;SDS011;6168;42.658;23.298;2022-10-22T02:20:40;5.18;;;3.92;;
12210;SDS011;6168;42.658;23.298;2022-10-22T02:23:07;5.97;;;4.32;;
12210;SDS011;6168;42.658;23.298;2022-10-22T02:25:35;7.57;;;5.13;;
12210;SDS011;6168;42.658;23.298;2022-10-22T02:28:03;6.45;;;4.60;;
12210;SDS011;6168;42.658;23.298;2022-10-22T02:30:32;6.32;;;4.85;;
12210;SDS011;6168;42.658;23.298;2022-10-22T02:33:01;9.07;;;6.13;;
12210;SDS011;6168;42.658;23.298;2022-10-22T02:35:30;5.22;;;3.95;;
12210;SDS011;6168;42.658;23.298;2022-10-22T02:37:58;6.50;;;5.15;;
12210;SDS011;6168;42.658;23.298;2022-10-22T02:40:25;7.15;;;4.10;;
12210;SDS011;6168;42.658;23.298;2022-10-22T02:42:52;7.93;;;5.30;;
12210;SDS011;6168;42.658;23.298;2022-10-22T02:45:18;5.78;;;4.43;;
12210;SDS011;6168;42.658;23.298;2022-10-22T02:47:45;6.88;;;4.65;;
12210;SDS011;6168;42.658;23.298;2022-10-22T02:50:12;6.65;;;5.00;;
12210;SDS011;6168;42.658;23.298;2022-10-22T02:52:39;5.63;;;4.38;;
12210;SDS011;6168;42.658;23.298;2022-10-22T02:55:07;6.68;;;4.88;;
12210;SDS011;6168;42.658;23.298;2022-10-22T02:57:33;8.30;;;5.60;;
12210;SDS011;6168;42.658;23.298;2022-10-22T03:00:00;4.70;;;4.13;;
12210;SDS011;6168;42.658;23.298;2022-10-22T03:02:26;6.78;;;4.70;;
12210;SDS011;6168;42.658;23.298;2022-10-22T03:04:53;7.13;;;4.40;;
12210;SDS011;6168;42.658;23.298;2022-10-22T03:07:19;5.72;;;4.47;;
12210;SDS011;6168;42.658;23.298;2022-10-22T03:09:46;6.80;;;4.82;;
12210;SDS011;6168;42.658;23.298;2022-10-22T03:12:14;5.60;;;4.65;;
12210;SDS011;6168;42.658;23.298;2022-10-22T03:14:41;8.68;;;5.20;;
12210;SDS011;6168;42.658;23.298;2022-10-22T03:17:07;6.72;;;4.85;;
12210;SDS011;6168;42.658;23.298;2022-10-22T03:19:34;5.88;;;5.03;;
12210;SDS011;6168;42.658;23.298;2022-10-22T03:22:01;6.43;;;5.20;;
12210;SDS011;6168;42.658;23.298;2022-10-22T03:24:29;7.57;;;6.05;;
12210;SDS011;6168;42.658;23.298;2022-10-22T03:26:56;7.50;;;5.85;;
12210;SDS011;6168;42.658;23.298;2022-10-22T03:29:25;6.60;;;5.70;;
12210;SDS011;6168;42.658;23.298;2022-10-22T03:31:52;9.55;;;6.53;;
12210;SDS011;6168;42.658;23.298;2022-10-22T03:34:18;9.75;;;7.03;;
12210;SDS011;6168;42.658;23.298;2022-10-22T03:36:45;9.95;;;6.85;;
12210;SDS011;6168;42.658;23.298;2022-10-22T03:39:12;10.30;;;6.93;;
12210;SDS011;6168;42.658;23.298;2022-10-22T03:41:39;9.70;;;5.55;;
12210;SDS011;6168;42.658;23.298;2022-10-22T03:44:06;8.25;;;6.43;;
12210;SDS011;6168;42.658;23.298;2022-10-22T03:46:34;6.50;;;5.75;;
12210;SDS011;6168;42.658;23.298;2022-10-22T03:49:01;7.57;;;5.47;;
12210;SDS011;6168;42.658;23.298;2022-10-22T03:51:28;6.95;;;5.80;;
12210;SDS011;6168;42.658;23.298;2022-10-22T03:53:54;6.53;;;5.10;;
12210;SDS011;6168;42.658;23.298;2022-10-22T03:56:21;10.13;;;5.75;;
12210;SDS011;6168;42.658;23.298;2022-10-22T03:58:47;6.75;;;5.38;;
12210;SDS011;6168;42.658;23.298;2022-10-22T04:01:15;8.20;;;6.20;;
12210;SDS011;6168;42.658;23.298;2022-10-22T04:03:43;10.80;;;6.63;;
12210;SDS011;6168;42.658;23.298;2022-10-22T04:06:10;10.50;;;6.78;;
12210;SDS011;6168;42.658;23.298;2022-10-22T04:08:37;8.32;;;7.35;;
12210;SDS011;6168;42.658;23.298;2022-10-22T04:11:04;10.23;;;6.80;;
12210;SDS011;6168;42.658;23.298;2022-10-22T04:13:30;7.90;;;6.18;;
12210;SDS011;6168;42.658;23.298;2022-10-22T04:16:05;8.48;;;6.18;;
12210;SDS011;6168;42.658;23.298;2022-10-22T04:18:31;9.85;;;6.70;;
12210;SDS011;6168;42.658;23.298;2022-10-22T04:20:59;8.35;;;6.47;;
12210;SDS011;6168;42.658;23.298;2022-10-22T04:23:26;9.27;;;6.90;;
12210;SDS011;6168;42.658;23.298;2022-10-22T04:25:56;7.45;;;5.78;;
12210;SDS011;6168;42.658;23.298;2022-10-22T04:28:22;8.18;;;6.40;;
12210;SDS011;6168;42.658;23.298;2022-10-22T04:30:49;7.78;;;6.65;;
12210;SDS011;6168;42.658;23.298;2022-10-22T04:33:15;9.85;;;6.10;;
12210;SDS011;6168;42.658;23.298;2022-10-22T04:35:42;9.07;;;7.68;;
12210;SDS011;6168;42.658;23.298;2022-10-22T04:38:10;8.25;;;6.30;;
12210;SDS011;6168;42.658;23.298;2022-10-22T04:40:36;10.95;;;7.50;;
12210;SDS011;6168;42.658;23.298;2022-10-22T04:43:03;7.18;;;6.47;;
12210;SDS011;6168;42.658;23.298;2022-10-22T04:45:31;8.90;;;6.57;;
12210;SDS011;6168;42.658;23.298;2022-10-22T04:47:58;9.38;;;6.38;;
12210;SDS011;6168;42.658;23.298;2022-10-22T04:50:24;8.30;;;6.88;;
12210;SDS011;6168;42.658;23.298;2022-10-22T04:52:51;10.88;;;6.55;;
12210;SDS011;6168;42.658;23.298;2022-10-22T04:55:19;7.47;;;6.70;;
12210;SDS011;6168;42.658;23.298;2022-10-22T04:57:45;8.35;;;6.20;;
12210;SDS011;6168;42.658;23.298;2022-10-22T05:00:12;8.10;;;6.13;;
12210;SDS011;6168;42.658;23.298;2022-10-22T05:02:40;9.55;;;7.10;;
12210;SDS011;6168;42.658;23.298;2022-10-22T05:05:08;7.57;;;5.85;;
12210;SDS011;6168;42.658;23.298;2022-10-22T05:07:36;10.50;;;7.80;;
12210;SDS011;6168;42.658;23.298;2022-10-22T05:10:02;8.05;;;6.90;;
12210;SDS011;6168;42.658;23.298;2022-10-22T05:12:30;10.32;;;6.55;;
12210;SDS011;6168;42.658;23.298;2022-10-22T05:14:57;11.77;;;7.50;;
12210;SDS011;6168;42.658;23.298;2022-10-22T05:17:23;12.40;;;8.35;;
12210;SDS011;6168;42.658;23.298;2022-10-22T05:19:50;8.60;;;7.05;;
12210;SDS011;6168;42.658;23.298;2022-10-22T05:22:16;8.68;;;6.97;;
12210;SDS011;6168;42.658;23.298;2022-10-22T05:24:43;17.67;;;10.85;;
12210;SDS011;6168;42.658;23.298;2022-10-22T05:27:09;22.05;;;15.55;;
12210;SDS011;6168;42.658;23.298;2022-10-22T05:29:37;21.75;;;14.52;;
12210;SDS011;6168;42.658;23.298;2022-10-22T05:32:04;11.55;;;8.25;;
12210;SDS011;6168;42.658;23.298;2022-10-22T05:34:30;12.82;;;9.18;;
12210;SDS011;6168;42.658;23.298;2022-10-22T05:36:57;15.60;;;9.43;;
12210;SDS011;6168;42.658;23.298;2022-10-22T05:39:24;22.52;;;13.32;;
12210;SDS011;6168;42.658;23.298;2022-10-22T05:41:50;52.53;;;34.33;;
12210;SDS011;6168;42.658;23.298;2022-10-22T05:44:18;18.27;;;12.68;;
12210;SDS011;6168;42.658;23.298;2022-10-22T05:46:46;14.75;;;10.73;;
12210;SDS011;6168;42.658;23.298;2022-10-22T05:49:13;13.20;;;8.90;;
12210;SDS011;6168;42.658;23.298;2022-10-22T05:51:40;24.27;;;15.90;;
12210;SDS011;6168;42.658;23.298;2022-10-22T05:54:07;37.85;;;22.35;;
12210;SDS011;6168;42.658;23.298;2022-10-22T05:56:35;24.92;;;16.63;;
12210;SDS011;6168;42.658;23.298;2022-10-22T05:59:02;15.40;;;11.70;;
12210;SDS011;6168;42.658;23.298;2022-10-22T06:01:29;32.92;;;21.45;;
12210;SDS011;6168;42.658;23.298;2022-10-22T06:03:57;19.13;;;12.63;;
12210;SDS011;6168;42.658;23.298;2022-10-22T06:06:26;21.38;;;13.18;;
12210;SDS011;6168;42.658;23.298;2022-10-22T06:08:52;20.00;;;11.98;;
12210;SDS011;6168;42.658;23.298;2022-10-22T06:11:19;23.75;;;15.65;;
12210;SDS011;6168;42.658;23.298;2022-10-22T06:13:46;38.38;;;22.95;;
12210;SDS011;6168;42.658;23.298;2022-10-22T06:16:13;24.88;;;16.23;;
12210;SDS011;6168;42.658;23.298;2022-10-22T06:18:40;28.20;;;15.80;;
12210;SDS011;6168;42.658;23.298;2022-10-22T06:21:08;34.33;;;20.95;;
12210;SDS011;6168;42.658;23.298;2022-10-22T06:23:35;21.95;;;13.95;;
12210;SDS011;6168;42.658;23.298;2022-10-22T06:26:02;31.70;;;19.33;;
12210;SDS011;6168;42.658;23.298;2022-10-22T06:28:28;18.00;;;12.55;;
12210;SDS011;6168;42.658;23.298;2022-10-22T06:30:56;16.77;;;12.88;;
12210;SDS011;6168;42.658;23.298;2022-10-22T06:33:23;15.93;;;12.30;;
12210;SDS011;6168;42.658;23.298;2022-10-22T06:35:49;19.38;;;13.65;;
12210;SDS011;6168;42.658;23.298;2022-10-22T06:38:17;26.35;;;15.68;;
12210;SDS011;6168;42.658;23.298;2022-10-22T06:40:44;20.85;;;12.38;;
12210;SDS011;6168;42.658;23.298;2022-10-22T06:43:11;22.02;;;13.02;;
12210;SDS011;6168;42.658;23.298;2022-10-22T06:45:37;16.50;;;11.25;;
12210;SDS011;6168;42.658;23.298;2022-10-22T06:48:04;16.92;;;11.52;;
12210;SDS011;6168;42.658;23.298;2022-10-22T06:50:33;16.60;;;11.70;;
12210;SDS011;6168;42.658;23.298;2022-10-22T06:52:59;23.13;;;15.27;;
12210;SDS011;6168;42.658;23.298;2022-10-22T06:55:27;16.98;;;11.35;;
12210;SDS011;6168;42.658;23.298;2022-10-22T06:57:54;16.63;;;11.52;;
12210;SDS011;6168;42.658;23.298;2022-10-22T07:00:21;18.80;;;12.80;;
12210;SDS011;6168;42.658;23.298;2022-10-22T07:02:49;16.35;;;11.35;;
12210;SDS011;6168;42.658;23.298;2022-10-22T07:05:16;19.67;;;11.23;;
12210;SDS011;6168;42.658;23.298;2022-10-22T07:07:43;16.05;;;11.07;;
12210;SDS011;6168;42.658;23.298;2022-10-22T07:10:09;18.88;;;12.07;;
12210;SDS011;6168;42.658;23.298;2022-10-22T07:12:38;16.13;;;10.90;;
12210;SDS011;6168;42.658;23.298;2022-10-22T07:15:04;14.75;;;10.85;;
12210;SDS011;6168;42.658;23.298;2022-10-22T07:17:31;15.90;;;11.82;;
12210;SDS011;6168;42.658;23.298;2022-10-22T07:19:58;17.77;;;12.40;;
12210;SDS011;6168;42.658;23.298;2022-10-22T07:22:24;15.43;;;10.30;;
12210;SDS011;6168;42.658;23.298;2022-10-22T07:24:51;15.27;;;10.00;;
12210;SDS011;6168;42.658;23.298;2022-10-22T07:27:17;12.75;;;10.75;;
12210;SDS011;6168;42.658;23.298;2022-10-22T07:29:46;20.13;;;11.77;;
12210;SDS011;6168;42.658;23.298;2022-10-22T07:32:12;22.30;;;12.18;;
12210;SDS011;6168;42.658;23.298;2022-10-22T07:34:39;23.85;;;15.02;;
12210;SDS011;6168;42.658;23.298;2022-10-22T07:37:05;22.15;;;11.27;;
12210;SDS011;6168;42.658;23.298;2022-10-22T07:39:32;15.13;;;11.18;;
12210;SDS011;6168;42.658;23.298;2022-10-22T07:41:58;18.52;;;11.77;;
12210;SDS011;6168;42.658;23.298;2022-10-22T07:44:25;15.60;;;11.38;;
12210;SDS011;6168;42.658;23.298;2022-10-22T07:46:53;19.85;;;10.65;;
12210;SDS011;6168;42.658;23.298;2022-10-22T07:49:19;18.95;;;12.30;;
12210;SDS011;6168;42.658;23.298;2022-10-22T07:51:46;15.50;;;11.50;;
12210;SDS011;6168;42.658;23.298;2022-10-22T07:54:12;12.55;;;10.32;;
12210;SDS011;6168;42.658;23.298;2022-10-22T07:56:40;14.82;;;11.60;;
12210;SDS011;6168;42.658;23.298;2022-10-22T07:59:06;17.70;;;11.95;;
12210;SDS011;6168;42.658;23.298;2022-10-22T08:01:33;18.88;;;11.73;;
12210;SDS011;6168;42.658;23.298;2022-10-22T08:04:01;16.08;;;9.48;;
12210;SDS011;6168;42.658;23.298;2022-10-22T08:06:27;16.17;;;10.27;;
12210;SDS011;6168;42.658;23.298;2022-10-22T08:08:54;26.35;;;16.83;;
12210;SDS011;6168;42.658;23.298;2022-10-22T08:11:20;16.55;;;11.05;;
12210;SDS011;6168;42.658;23.298;2022-10-22T08:13:47;16.40;;;11.80;;
12210;SDS011;6168;42.658;23.298;2022-10-22T08:16:13;18.85;;;9.85;;
12210;SDS011;6168;42.658;23.298;2022-10-22T08:18:40;13.02;;;9.02;;
12210;SDS011;6168;42.658;23.298;2022-10-22T08:21:08;14.15;;;9.65;;
12210;SDS011;6168;42.658;23.298;2022-10-22T08:23:35;14.63;;;10.00;;
12210;SDS011;6168;42.658;23.298;2022-10-22T08:26:01;11.55;;;9.27;;
12210;SDS011;6168;42.658;23.298;2022-10-22T08:28:28;13.98;;;9.80;;
12210;SDS011;6168;42.658;23.298;2022-10-22T08:30:57;12.85;;;9.63;;
12210;SDS011;6168;42.658;23.298;2022-10-22T08:33:23;13.23;;;9.30;;
12210;SDS011;6168;42.658;23.298;2022-10-22T08:35:50;11.02;;;8.15;;
12210;SDS011;6168;42.658;23.298;2022-10-22T08:38:18;10.43;;;8.18;;
12210;SDS011;6168;42.658;23.298;2022-10-22T08:40:46;10.98;;;8.68;;
12210;SDS011;6168;42.658;23.298;2022-10-22T08:43:22;12.82;;;9.35;;
12210;SDS011;6168;42.658;23.298;2022-10-22T08:45:52;16.10;;;12.23;;
12210;SDS011;6168;42.658;23.298;2022-10-22T08:48:25;18.52;;;12.43;;
12210;SDS011;6168;42.658;23.298;2022-10-22T08:50:55;16.17;;;11.75;;
12210;SDS011;6168;42.658;23.298;2022-10-22T08:53:30;17.58;;;10.65;;
12210;SDS011;6168;42.658;23.298;2022-10-22T08:56:02;11.63;;;9.32;;
12210;SDS011;6168;42.658;23.298;2022-10-22T08:58:30;12.07;;;8.95;;
12210;SDS011;6168;42.658;23.298;2022-10-22T09:00:59;16.25;;;10.45;;
12210;SDS011;6168;42.658;23.298;2022-10-22T09:03:32;15.32;;;10.95;;
12210;SDS011;6168;42.658;23.298;2022-10-22T09:06:02;14.70;;;10.63;;
12210;SDS011;6168;42.658;23.298;2022-10-22T09:08:32;11.93;;;8.85;;
12210;SDS011;6168;42.658;23.298;2022-10-22T09:11:01;12.32;;;9.05;;
12210;SDS011;6168;42.658;23.298;2022-10-22T09:13:28;11.57;;;8.45;;
12210;SDS011;6168;42.658;23.298;2022-10-22T09:15:57;13.38;;;9.55;;
12210;SDS011;6168;42.658;23.298;2022-10-22T09:18:29;11.95;;;9.80;;
12210;SDS011;6168;42.658;23.298;2022-10-22T09:20:58;12.05;;;8.95;;
12210;SDS011;6168;42.658;23.298;2022-10-22T09:23:30;8.73;;;7.65;;
12210;SDS011;6168;42.658;23.298;2022-10-22T09:26:00;15.98;;;9.02;;
12210;SDS011;6168;42.658;23.298;2022-10-22T09:28:26;12.57;;;9.43;;
12210;SDS011;6168;42.658;23.298;2022-10-22T09:30:53;13.90;;;10.05;;
12210;SDS011;6168;42.658;23.298;2022-10-22T09:33:22;13.30;;;9.85;;
12210;SDS011;6168;42.658;23.298;2022-10-22T09:35:51;14.07;;;10.63;;
12210;SDS011;6168;42.658;23.298;2022-10-22T09:38:19;14.00;;;10.75;;
12210;SDS011;6168;42.658;23.298;2022-10-22T09:40:46;14.23;;;11.27;;
12210;SDS011;6168;42.658;23.298;2022-10-22T09:43:15;13.13;;;10.57;;
12210;SDS011;6168;42.658;23.298;2022-10-22T09:45:41;12.57;;;9.25;;
12210;SDS011;6168;42.658;23.298;2022-10-22T09:48:10;16.08;;;10.15;;
12210;SDS011;6168;42.658;23.298;2022-10-22T09:50:38;15.93;;;9.93;;
12210;SDS011;6168;42.658;23.298;2022-10-22T09:53:11;12.93;;;9.27;;
12210;SDS011;6168;42.658;23.298;2022-10-22T09:55:38;13.18;;;10.48;;
12210;SDS011;6168;42.658;23.298;2022-10-22T09:58:07;12.27;;;8.98;;
12210;SDS011;6168;42.658;23.298;2022-10-22T10:00:37;11.82;;;9.48;;
12210;SDS011;6168;42.658;23.298;2022-10-22T10:03:04;11.00;;;9.00;;
12210;SDS011;6168;42.658;23.298;2022-10-22T10:05:31;12.55;;;8.77;;
12210;SDS011;6168;42.658;23.298;2022-10-22T10:07:58;12.18;;;9.05;;
12210;SDS011;6168;42.658;23.298;2022-10-22T10:10:32;13.70;;;10.13;;
12210;SDS011;6168;42.658;23.298;2022-10-22T10:13:02;11.57;;;8.80;;
12210;SDS011;6168;42.658;23.298;2022-10-22T10:15:33;11.55;;;8.05;;
12210;SDS011;6168;42.658;23.298;2022-10-22T10:18:05;13.85;;;9.07;;
12210;SDS011;6168;42.658;23.298;2022-10-22T10:20:34;16.17;;;8.73;;
12210;SDS011;6168;42.658;23.298;2022-10-22T10:23:08;12.77;;;8.75;;
12210;SDS011;6168;42.658;23.298;2022-10-22T10:25:45;12.15;;;8.95;;
12210;SDS011;6168;42.658;23.298;2022-10-22T10:28:20;12.52;;;9.00;;
12210;SDS011;6168;42.658;23.298;2022-10-22T10:30:50;10.32;;;8.18;;
12210;SDS011;6168;42.658;23.298;2022-10-22T10:33:23;11.35;;;8.98;;
12210;SDS011;6168;42.658;23.298;2022-10-22T10:35:53;11.43;;;8.27;;
12210;SDS011;6168;42.658;23.298;2022-10-22T10:38:33;11.02;;;8.52;;
12210;SDS011;6168;42.658;23.298;2022-10-22T10:41:06;11.98;;;9.43;;
12210;SDS011;6168;42.658;23.298;2022-10-22T10:43:41;10.80;;;8.15;;
12210;SDS011;6168;42.658;23.298;2022-10-22T10:46:11;10.80;;;8.40;;
12210;SDS011;6168;42.658;23.298;2022-10-22T10:48:46;9.60;;;8.18;;
12210;SDS011;6168;42.658;23.298;2022-10-22T10:51:19;9.57;;;8.15;;
12210;SDS011;6168;42.658;23.298;2022-10-22T10:53:55;9.32;;;8.05;;
12210;SDS011;6168;42.658;23.298;2022-10-22T10:56:36;10.38;;;7.72;;
12210;SDS011;6168;42.658;23.298;2022-10-22T10:59:09;10.38;;;8.05;;
12210;SDS011;6168;42.658;23.298;2022-10-22T11:01:39;11.00;;;7.93;;
12210;SDS011;6168;42.658;23.298;2022-10-22T11:04:12;10.98;;;8.07;;
12210;SDS011;6168;42.658;23.298;2022-10-22T11:06:41;9.73;;;7.88;;
12210;SDS011;6168;42.658;23.298;2022-10-22T11:09:13;8.98;;;8.02;;
12210;SDS011;6168;42.658;23.298;2022-10-22T11:11:45;10.80;;;8.23;;
12210;SDS011;6168;42.658;23.298;2022-10-22T11:14:14;9.88;;;7.80;;
12210;SDS011;6168;42.658;23.298;2022-10-22T11:16:43;8.32;;;7.13;;
12210;SDS011;6168;42.658;23.298;2022-10-22T11:19:14;9.55;;;7.10;;
12210;SDS011;6168;42.658;23.298;2022-10-22T11:21:42;10.27;;;7.25;;
12210;SDS011;6168;42.658;23.298;2022-10-22T11:24:14;9.25;;;7.53;;
12210;SDS011;6168;42.658;23.298;2022-10-22T11:26:45;10.85;;;7.35;;
12210;SDS011;6168;42.658;23.298;2022-10-22T11:29:14;9.35;;;7.22;;
12210;SDS011;6168;42.658;23.298;2022-10-22T11:31:42;9.88;;;6.88;;
12210;SDS011;6168;42.658;23.298;2022-10-22T11:34:12;7.90;;;6.22;;
12210;SDS011;6168;42.658;23.298;2022-10-22T11:36:42;8.20;;;6.40;;
12210;SDS011;6168;42.658;23.298;2022-10-22T11:41:50;6.47;;;5.13;;
12210;SDS011;6168;42.658;23.298;2022-10-22T11:44:19;8.07;;;6.38;;
12210;SDS011;6168;42.658;23.298;2022-10-22T11:46:53;6.00;;;5.22;;
12210;SDS011;6168;42.658;23.298;2022-10-22T11:49:22;6.53;;;5.07;;
12210;SDS011;6168;42.658;23.298;2022-10-22T11:51:50;7.35;;;5.88;;
12210;SDS011;6168;42.658;23.298;2022-10-22T11:57:19;8.68;;;5.78;;
12210;SDS011;6168;42.658;23.298;2022-10-22T11:59:48;7.05;;;5.75;;
12210;SDS011;6168;42.658;23.298;2022-10-22T12:05:18;5.43;;;4.85;;
12210;SDS011;6168;42.658;23.298;2022-10-22T12:07:52;6.43;;;5.13;;
12210;SDS011;6168;42.658;23.298;2022-10-22T12:10:21;5.90;;;4.93;;
12210;SDS011;6168;42.658;23.298;2022-10-22T12:12:51;7.75;;;5.68;;
12210;SDS011;6168;42.658;23.298;2022-10-22T12:15:22;6.78;;;5.75;;
12210;SDS011;6168;42.658;23.298;2022-10-22T12:17:49;5.93;;;5.30;;
12210;SDS011;6168;42.658;23.298;2022-10-22T12:20:16;6.18;;;5.05;;
12210;SDS011;6168;42.658;23.298;2022-10-22T12:22:42;9.15;;;5.68;;
12210;SDS011;6168;42.658;23.298;2022-10-22T12:25:16;5.72;;;5.22;;
12210;SDS011;6168;42.658;23.298;2022-10-22T12:27:48;7.38;;;5.18;;
12210;SDS011;6168;42.658;23.298;2022-10-22T12:30:16;6.43;;;5.00;;
12210;SDS011;6168;42.658;23.298;2022-10-22T12:32:43;5.70;;;4.18;;
12210;SDS011;6168;42.658;23.298;2022-10-22T12:35:13;5.13;;;4.68;;
12210;SDS011;6168;42.658;23.298;2022-10-22T12:37:40;5.53;;;5.05;;
12210;SDS011;6168;42.658;23.298;2022-10-22T12:40:19;4.80;;;4.10;;
12210;SDS011;6168;42.658;23.298;2022-10-22T12:42:46;4.35;;;3.92;;
12210;SDS011;6168;42.658;23.298;2022-10-22T12:45:13;7.50;;;4.03;;
12210;SDS011;6168;42.658;23.298;2022-10-22T12:47:43;7.47;;;4.35;;
12210;SDS011;6168;42.658;23.298;2022-10-22T12:50:13;5.57;;;4.25;;
12210;SDS011;6168;42.658;23.298;2022-10-22T12:52:41;6.22;;;4.15;;
12210;SDS011;6168;42.658;23.298;2022-10-22T12:55:13;3.58;;;3.28;;
12210;SDS011;6168;42.658;23.298;2022-10-22T12:57:41;4.38;;;3.97;;
12210;SDS011;6168;42.658;23.298;2022-10-22T13:00:18;4.32;;;3.92;;
12210;SDS011;6168;42.658;23.298;2022-10-22T13:02:45;4.32;;;3.90;;
12210;SDS011;6168;42.658;23.298;2022-10-22T13:05:16;7.00;;;4.43;;
12210;SDS011;6168;42.658;23.298;2022-10-22T13:07:46;4.07;;;3.67;;
12210;SDS011;6168;42.658;23.298;2022-10-22T13:10:14;4.60;;;3.80;;
12210;SDS011;6168;42.658;23.298;2022-10-22T13:12:47;6.47;;;4.15;;
12210;SDS011;6168;42.658;23.298;2022-10-22T13:15:18;3.95;;;3.45;;
12210;SDS011;6168;42.658;23.298;2022-10-22T13:17:45;6.35;;;4.25;;
12210;SDS011;6168;42.658;23.298;2022-10-22T13:20:14;3.90;;;3.60;;
12210;SDS011;6168;42.658;23.298;2022-10-22T13:22:51;4.88;;;3.83;;
12210;SDS011;6168;42.658;23.298;2022-10-22T13:25:20;4.38;;;4.07;;
12210;SDS011;6168;42.658;23.298;2022-10-22T13:27:49;4.18;;;3.60;;
12210;SDS011;6168;42.658;23.298;2022-10-22T13:30:17;4.72;;;4.18;;
12210;SDS011;6168;42.658;23.298;2022-10-22T13:32:47;5.03;;;3.38;;
12210;SDS011;6168;42.658;23.298;2022-10-22T13:35:14;4.82;;;4.07;;
12210;SDS011;6168;42.658;23.298;2022-10-22T13:37:42;4.50;;;3.58;;
12210;SDS011;6168;42.658;23.298;2022-10-22T13:40:10;3.95;;;3.65;;
12210;SDS011;6168;42.658;23.298;2022-10-22T13:42:37;4.05;;;3.40;;
12210;SDS011;6168;42.658;23.298;2022-10-22T13:45:06;3.42;;;3.05;;
12210;SDS011;6168;42.658;23.298;2022-10-22T13:47:32;3.97;;;3.58;;
12210;SDS011;6168;42.658;23.298;2022-10-22T13:50:00;5.20;;;3.42;;
12210;SDS011;6168;42.658;23.298;2022-10-22T13:52:34;5.55;;;3.28;;
12210;SDS011;6168;42.658;23.298;2022-10-22T13:55:01;4.85;;;2.90;;
12210;SDS011;6168;42.658;23.298;2022-10-22T13:57:31;3.90;;;3.38;;
12210;SDS011;6168;42.658;23.298;2022-10-22T13:59:58;5.10;;;3.20;;
12210;SDS011;6168;42.658;23.298;2022-10-22T14:02:26;3.70;;;3.15;;
12210;SDS011;6168;42.658;23.298;2022-10-22T14:04:52;3.90;;;2.72;;
12210;SDS011;6168;42.658;23.298;2022-10-22T14:07:19;4.32;;;3.20;;
12210;SDS011;6168;42.658;23.298;2022-10-22T14:09:46;3.05;;;2.85;;
12210;SDS011;6168;42.658;23.298;2022-10-22T14:12:14;3.00;;;2.72;;
12210;SDS011;6168;42.658;23.298;2022-10-22T14:14:41;4.45;;;3.25;;
12210;SDS011;6168;42.658;23.298;2022-10-22T14:17:09;4.00;;;3.58;;
12210;SDS011;6168;42.658;23.298;2022-10-22T14:19:41;4.07;;;3.42;;
12210;SDS011;6168;42.658;23.298;2022-10-22T14:22:09;4.40;;;2.95;;
12210;SDS011;6168;42.658;23.298;2022-10-22T14:24:37;3.80;;;3.35;;
12210;SDS011;6168;42.658;23.298;2022-10-22T14:27:03;5.00;;;3.55;;
12210;SDS011;6168;42.658;23.298;2022-10-22T14:29:30;5.50;;;3.53;;
12210;SDS011;6168;42.658;23.298;2022-10-22T14:31:56;3.95;;;3.53;;
12210;SDS011;6168;42.658;23.298;2022-10-22T14:34:23;3.95;;;3.45;;
12210;SDS011;6168;42.658;23.298;2022-10-22T14:36:51;4.53;;;3.90;;
12210;SDS011;6168;42.658;23.298;2022-10-22T14:39:17;5.18;;;3.85;;
12210;SDS011;6168;42.658;23.298;2022-10-22T14:41:45;6.22;;;4.53;;
12210;SDS011;6168;42.658;23.298;2022-10-22T14:44:12;7.93;;;4.72;;
12210;SDS011;6168;42.658;23.298;2022-10-22T14:46:39;7.05;;;4.32;;
12210;SDS011;6168;42.658;23.298;2022-10-22T14:49:08;6.53;;;4.70;;
12210;SDS011;6168;42.658;23.298;2022-10-22T14:51:34;6.03;;;3.72;;
12210;SDS011;6168;42.658;23.298;2022-10-22T14:54:02;9.48;;;5.13;;